createdAt,value
2018-03-08T00:00:55.117Z,59.16
2018-03-08T00:03:23.702Z,58.51
2018-03-08T00:05:52.264Z,58.37
2018-03-08T00:08:20.810Z,57.26
2018-03-08T00:10:49.599Z,56.53
2018-03-08T00:13:18.228Z,56.69
2018-03-08T00:15:46.777Z,56.73
2018-03-08T00:18:15.585Z,57.41
2018-03-08T00:20:44.323Z,57.94
2018-03-08T00:23:12.921Z,58.10
2018-03-08T00:25:41.484Z,58.00
2018-03-08T00:28:10.002Z,57.51
2018-03-08T00:30:38.532Z,57.26
2018-03-08T00:33:07.110Z,56.84
2018-03-08T00:35:35.656Z,56.84
2018-03-08T00:38:04.862Z,56.31
2018-03-08T00:40:33.439Z,56.41
2018-03-08T00:43:01.981Z,55.92
2018-03-08T00:45:30.507Z,55.93
2018-03-08T00:47:59.168Z,55.48
2018-03-08T00:50:27.882Z,55.14
2018-03-08T00:52:56.421Z,55.09
2018-03-08T00:55:25.987Z,54.75
2018-03-08T00:57:54.541Z,55.25
2018-03-08T01:00:25.191Z,55.22
2018-03-08T01:02:53.699Z,55.41
2018-03-08T01:05:22.336Z,55.27
2018-03-08T01:07:50.957Z,55.31
2018-03-08T01:10:19.668Z,55.78
2018-03-08T01:12:48.210Z,55.29
2018-03-08T01:15:16.938Z,55.48
2018-03-08T01:17:45.470Z,56.83
2018-03-08T01:20:14.028Z,56.29
2018-03-08T01:22:42.632Z,56.21
2018-03-08T01:25:11.295Z,56.02
2018-03-08T01:29:55.410Z,56.12
2018-03-08T01:35:03.939Z,56.00
2018-03-08T01:37:32.516Z,55.96
2018-03-08T01:40:01.219Z,55.80
2018-03-08T01:42:29.926Z,55.58
2018-03-08T01:44:58.500Z,55.38
2018-03-08T01:47:27.089Z,55.50
2018-03-08T01:49:56.589Z,55.97
2018-03-08T01:52:25.330Z,55.67
2018-03-08T01:54:54.051Z,55.69
2018-03-08T01:57:22.682Z,55.64
2018-03-08T01:59:51.291Z,55.67
2018-03-08T02:02:19.891Z,57.60
2018-03-08T02:04:48.864Z,58.82
2018-03-08T02:07:17.497Z,58.10
2018-03-08T02:09:46.078Z,57.56
2018-03-08T02:12:14.692Z,56.39
2018-03-08T02:14:43.293Z,56.54
2018-03-08T02:17:12.033Z,57.32
2018-03-08T02:19:40.686Z,57.47
2018-03-08T02:22:09.489Z,57.62
2018-03-08T02:24:38.144Z,57.85
2018-03-08T02:27:06.783Z,57.85
2018-03-08T02:29:35.654Z,57.93
2018-03-08T02:32:04.824Z,57.70
2018-03-08T02:34:33.511Z,58.07
2018-03-08T02:37:02.880Z,57.92
2018-03-08T02:39:31.646Z,58.31
2018-03-08T02:42:00.683Z,57.65
2018-03-08T02:44:30.092Z,57.95
2018-03-08T02:46:58.728Z,59.00
2018-03-08T02:49:27.424Z,58.79
2018-03-08T02:51:56.029Z,59.91
2018-03-08T02:54:24.688Z,60.16
2018-03-08T02:56:53.367Z,62.43
2018-03-08T02:59:22.253Z,64.04
2018-03-08T03:01:50.868Z,64.01
2018-03-08T03:04:19.635Z,64.42
2018-03-08T03:06:48.271Z,65.88
2018-03-08T03:09:16.919Z,65.67
2018-03-08T03:11:45.690Z,65.57
2018-03-08T03:14:14.986Z,64.93
2018-03-08T03:16:43.672Z,65.36
2018-03-08T03:19:12.315Z,64.11
2018-03-08T03:21:40.966Z,63.58
2018-03-08T03:24:09.623Z,63.17
2018-03-08T03:26:38.265Z,62.15
2018-03-08T03:29:07.777Z,61.90
2018-03-08T03:31:36.513Z,62.78
2018-03-08T03:34:05.336Z,62.19
2018-03-08T03:36:35.465Z,62.01
2018-03-08T03:39:04.256Z,61.53
2018-03-08T03:41:32.939Z,61.08
2018-03-08T03:44:01.710Z,60.80
2018-03-08T03:46:30.352Z,60.72
2018-03-08T03:48:59.915Z,60.59
2018-03-08T03:51:28.539Z,61.06
2018-03-08T03:53:57.356Z,61.50
2018-03-08T03:56:26.016Z,61.67
2018-03-08T03:58:54.744Z,62.09
2018-03-08T04:01:23.403Z,61.98
2018-03-08T04:03:52.310Z,61.91
2018-03-08T04:06:21.151Z,61.65
2018-03-08T04:08:49.850Z,62.02
2018-03-08T04:11:18.774Z,62.04
2018-03-08T04:13:47.407Z,62.48
2018-03-08T04:16:16.796Z,63.23
2018-03-08T04:18:45.526Z,63.84
2018-03-08T04:21:14.592Z,63.51
2018-03-08T04:23:43.447Z,64.01
2018-03-08T04:26:12.076Z,64.05
2018-03-08T04:28:40.828Z,64.38
2018-03-08T04:31:09.461Z,64.36
2018-03-08T04:33:38.103Z,64.58
2018-03-08T04:36:06.895Z,64.68
2018-03-08T04:38:36.125Z,65.04
2018-03-08T04:41:04.940Z,64.92
2018-03-08T04:43:34.366Z,65.19
2018-03-08T04:46:03.023Z,65.08
2018-03-08T04:48:31.624Z,65.17
2018-03-08T04:51:00.450Z,65.35
2018-03-08T04:53:29.177Z,65.85
2018-03-08T04:55:58.082Z,66.01
2018-03-08T04:58:27.403Z,65.84
2018-03-08T05:00:56.199Z,66.04
2018-03-08T05:03:24.892Z,66.07
2018-03-08T05:05:53.667Z,66.01
2018-03-08T05:08:22.296Z,65.92
2018-03-08T05:10:50.990Z,65.78
2018-03-08T05:13:19.758Z,65.65
2018-03-08T05:15:48.423Z,66.29
2018-03-08T05:18:17.173Z,65.90
2018-03-08T05:20:46.058Z,65.97
2018-03-08T05:23:15.362Z,65.87
2018-03-08T05:25:44.026Z,66.27
2018-03-08T05:28:12.784Z,66.37
2018-03-08T05:30:41.432Z,66.75
2018-03-08T05:33:10.077Z,67.18
2018-03-08T05:35:38.915Z,66.55
2018-03-08T05:38:07.602Z,66.46
2018-03-08T05:40:36.373Z,66.90
2018-03-08T05:43:05.945Z,67.18
2018-03-08T05:45:34.602Z,66.91
2018-03-08T05:48:03.303Z,66.28
2018-03-08T05:50:32.163Z,66.43
2018-03-08T05:53:00.889Z,66.49
2018-03-08T05:55:30.216Z,66.17
2018-03-08T05:57:58.872Z,66.39
2018-03-08T06:00:27.473Z,66.41
2018-03-08T06:02:56.169Z,66.65
2018-03-08T06:05:24.903Z,66.20
2018-03-08T06:07:53.549Z,66.37
2018-03-08T06:10:22.155Z,66.70
2018-03-08T06:12:50.803Z,66.50
2018-03-08T06:15:19.652Z,66.83
2018-03-08T06:17:48.293Z,66.95
2018-03-08T06:20:16.930Z,66.69
2018-03-08T06:22:45.549Z,68.21
2018-03-08T06:25:14.470Z,68.60
2018-03-08T06:27:43.394Z,68.32
2018-03-08T06:30:12.435Z,68.17
2018-03-08T06:32:41.031Z,68.10
2018-03-08T06:35:10.230Z,68.02
2018-03-08T06:37:38.859Z,68.91
2018-03-08T06:40:07.472Z,69.91
2018-03-08T06:42:36.139Z,69.67
2018-03-08T06:45:04.791Z,71.57
2018-03-08T06:47:33.427Z,70.08
2018-03-08T06:50:02.054Z,69.00
2018-03-08T06:52:30.727Z,70.00
2018-03-08T06:54:59.387Z,70.06
2018-03-08T06:57:28.157Z,70.96
2018-03-08T06:59:56.806Z,70.14
2018-03-08T07:02:25.439Z,70.46
2018-03-08T07:04:54.807Z,71.85
2018-03-08T07:07:23.451Z,70.84
2018-03-08T07:09:52.198Z,73.19
2018-03-08T07:12:20.814Z,73.38
2018-03-08T07:14:49.498Z,75.30
2018-03-08T07:17:18.106Z,77.16
2018-03-08T07:19:47.667Z,76.55
2018-03-08T07:22:16.322Z,78.89
2018-03-08T07:24:44.942Z,80.55
2018-03-08T07:27:13.598Z,79.87
2018-03-08T07:29:42.204Z,78.35
2018-03-08T07:32:10.825Z,77.28
2018-03-08T07:34:39.894Z,77.77
2018-03-08T07:37:08.507Z,75.86
2018-03-08T07:39:37.129Z,75.25
2018-03-08T07:42:05.911Z,74.71
2018-03-08T07:44:35.609Z,75.90
2018-03-08T07:47:04.225Z,74.83
2018-03-08T07:49:33.056Z,75.08
2018-03-08T07:52:02.374Z,73.61
2018-03-08T07:54:31.552Z,72.44
2018-03-08T07:57:00.919Z,72.01
2018-03-08T07:59:30.496Z,72.62
2018-03-08T08:01:59.245Z,74.02
2018-03-08T08:04:39.703Z,74.32
2018-03-08T08:07:20.272Z,72.47
2018-03-08T08:09:48.922Z,71.92
2018-03-08T08:12:18.415Z,71.59
2018-03-08T08:14:47.366Z,71.66
2018-03-08T08:17:16.066Z,70.18
2018-03-08T08:19:44.856Z,69.71
2018-03-08T08:22:13.608Z,69.58
2018-03-08T08:24:42.458Z,69.44
2018-03-08T08:27:11.257Z,68.44
2018-03-08T08:29:40.171Z,67.91
2018-03-08T08:32:10.607Z,66.31
2018-03-08T08:34:39.320Z,67.86
2018-03-08T08:37:08.130Z,66.84
2018-03-08T08:39:36.799Z,66.29
2018-03-08T08:42:05.507Z,65.55
2018-03-08T08:44:34.252Z,65.35
2018-03-08T08:47:03.030Z,64.81
2018-03-08T08:49:31.703Z,64.65
2018-03-08T08:52:00.874Z,63.98
2018-03-08T08:54:29.698Z,64.26
2018-03-08T08:56:58.642Z,63.95
2018-03-08T08:59:27.364Z,63.49
2018-03-08T09:01:56.096Z,62.35
2018-03-08T09:04:25.457Z,62.59
2018-03-08T09:06:54.441Z,61.36
2018-03-08T09:09:23.335Z,60.62
2018-03-08T09:11:52.083Z,61.42
2018-03-08T09:14:21.680Z,59.83
2018-03-08T09:16:50.378Z,61.50
2018-03-08T09:19:19.091Z,61.96
2018-03-08T09:24:23.664Z,59.10
2018-03-08T09:26:55.221Z,57.04
2018-03-08T09:29:23.856Z,58.10
2018-03-08T09:31:54.012Z,55.76
2018-03-08T09:34:22.793Z,56.19
2018-03-08T09:36:51.530Z,54.78
2018-03-08T09:39:21.543Z,54.08
2018-03-08T09:41:50.267Z,52.71
2018-03-08T09:44:20.093Z,51.36
2018-03-08T09:46:50.703Z,49.72
2018-03-08T09:49:19.456Z,49.69
2018-03-08T09:51:48.972Z,48.61
2018-03-08T09:54:17.610Z,49.96
2018-03-08T09:56:46.535Z,51.16
2018-03-08T09:59:15.247Z,51.29
2018-03-08T10:01:44.057Z,51.55
2018-03-08T10:04:13.285Z,52.32
2018-03-08T10:06:42.539Z,53.47
2018-03-08T10:09:12.129Z,52.19
2018-03-08T10:11:40.988Z,51.86
2018-03-08T10:14:10.583Z,50.36
2018-03-08T10:16:39.498Z,48.78
2018-03-08T10:19:08.722Z,49.20
2018-03-08T10:21:44.719Z,49.13
2018-03-08T10:24:06.347Z,51.18
2018-03-08T10:26:35.195Z,49.57
2018-03-08T10:29:03.799Z,48.43
2018-03-08T10:31:33.622Z,48.64
2018-03-08T10:34:02.542Z,49.20
2018-03-08T10:36:31.964Z,49.53
2018-03-08T10:44:01.656Z,48.94
2018-03-08T10:46:30.392Z,48.10
2018-03-08T10:51:27.852Z,48.39
2018-03-08T10:53:56.693Z,48.96
2018-03-08T10:56:26.081Z,52.06
2018-03-08T10:58:56.856Z,47.98
2018-03-08T11:01:25.723Z,47.48
2018-03-08T11:03:55.478Z,47.77
2018-03-08T11:06:29.198Z,44.40
2018-03-08T11:08:57.941Z,45.58
2018-03-08T11:11:26.671Z,46.35
2018-03-08T11:13:57.875Z,47.32
2018-03-08T11:16:27.055Z,45.89
2018-03-08T11:18:56.853Z,44.67
2018-03-08T11:21:25.735Z,45.03
2018-03-08T11:23:55.364Z,45.35
2018-03-08T11:26:24.153Z,43.50
2018-03-08T11:28:55.948Z,43.84
2018-03-08T11:31:26.249Z,42.30
2018-03-08T11:33:55.163Z,41.80
2018-03-08T11:36:23.988Z,41.85
2018-03-08T11:38:53.748Z,41.90
2018-03-08T11:41:23.146Z,44.19
2018-03-08T11:43:51.176Z,44.11
2018-03-08T11:46:19.893Z,43.57
2018-03-08T11:48:51.610Z,42.71
2018-03-08T11:51:21.348Z,44.85
2018-03-08T11:53:51.079Z,46.46
2018-03-08T11:56:20.684Z,49.50
2018-03-08T11:58:49.527Z,51.20
2018-03-08T12:01:18.240Z,49.97
2018-03-08T12:03:46.952Z,49.85
2018-03-08T12:06:15.791Z,52.05
2018-03-08T12:08:45.804Z,52.77
2018-03-08T12:11:14.441Z,53.25
2018-03-08T12:13:44.292Z,51.45
2018-03-08T12:16:12.946Z,52.12
2018-03-08T12:18:41.866Z,50.14
2018-03-08T12:21:11.485Z,50.66
2018-03-08T12:23:40.136Z,50.47
2018-03-08T12:26:08.852Z,50.82
2018-03-08T12:28:37.685Z,51.70
2018-03-08T12:31:07.409Z,52.12
2018-03-08T12:33:36.133Z,50.69
2018-03-08T12:36:04.881Z,51.70
2018-03-08T12:38:33.872Z,51.97
2018-03-08T12:41:02.623Z,51.14
2018-03-08T12:43:34.330Z,49.51
2018-03-08T12:46:03.493Z,50.03
2018-03-08T12:48:32.277Z,48.41
2018-03-08T12:51:01.002Z,48.12
2018-03-08T12:53:29.820Z,48.25
2018-03-08T12:55:59.062Z,47.89
2018-03-08T12:58:27.938Z,48.84
2018-03-08T13:00:57.913Z,48.76
2018-03-08T13:03:26.700Z,48.40
2018-03-08T13:05:55.539Z,49.07
2018-03-08T13:08:24.809Z,47.62
2018-03-08T13:10:54.085Z,49.70
2018-03-08T13:13:25.654Z,51.27
2018-03-08T13:15:55.143Z,51.31
2018-03-08T13:18:23.802Z,52.29
2018-03-08T13:20:53.187Z,49.30
2018-03-08T13:23:21.914Z,49.23
2018-03-08T13:25:50.574Z,48.56
2018-03-08T13:28:19.935Z,49.35
2018-03-08T13:30:49.883Z,48.12
2018-03-08T13:33:18.691Z,48.12
2018-03-08T13:35:47.428Z,47.89
2018-03-08T13:38:16.181Z,48.27
2018-03-08T13:40:45.279Z,45.68
2018-03-08T13:43:13.911Z,46.07
2018-03-08T13:45:43.006Z,45.50
2018-03-08T13:48:11.947Z,44.50
2018-03-08T13:53:17.263Z,46.43
2018-03-08T13:55:46.951Z,46.73
2018-03-08T13:58:16.985Z,43.14
2018-03-08T14:00:46.502Z,47.30
2018-03-08T14:03:15.309Z,44.86
2018-03-08T14:05:44.230Z,46.42
2018-03-08T14:08:12.992Z,46.95
2018-03-08T14:10:41.878Z,45.92
2018-03-08T14:13:10.779Z,45.31
2018-03-08T14:15:39.491Z,46.04
2018-03-08T14:18:23.506Z,45.45
2018-03-08T14:20:52.317Z,45.01
2018-03-08T14:23:21.925Z,44.79
2018-03-08T14:25:50.572Z,46.22
2018-03-08T14:28:19.139Z,43.77
2018-03-08T14:30:47.908Z,44.08
2018-03-08T14:33:16.587Z,43.16
2018-03-08T14:35:46.389Z,43.49
2018-03-08T14:38:16.009Z,44.52
2018-03-08T14:40:46.658Z,43.18
2018-03-08T14:43:15.794Z,38.76
2018-03-08T14:45:44.441Z,35.66
2018-03-08T14:48:15.160Z,33.16
2018-03-08T14:50:44.596Z,28.21
2018-03-08T14:53:14.513Z,31.49
2018-03-08T14:55:43.403Z,27.72
2018-03-08T14:58:11.996Z,29.71
2018-03-08T15:00:41.333Z,28.99
2018-03-08T15:03:09.939Z,28.91
2018-03-08T15:05:39.065Z,31.53
2018-03-08T15:08:08.574Z,34.38
2018-03-08T15:10:37.810Z,31.20
2018-03-08T15:13:07.116Z,29.65
2018-03-08T15:15:48.488Z,28.64
2018-03-08T15:18:18.308Z,31.76
2018-03-08T15:20:46.941Z,32.22
2018-03-08T15:23:15.633Z,33.53
2018-03-08T15:28:21.198Z,32.59
2018-03-08T15:30:49.866Z,30.41
2018-03-08T15:33:18.470Z,32.54
2018-03-08T15:35:48.195Z,30.98
2018-03-08T15:38:16.925Z,32.61
2018-03-08T15:40:45.642Z,30.86
2018-03-08T15:43:14.388Z,31.70
2018-03-08T15:45:44.084Z,30.50
2018-03-08T15:48:12.813Z,35.11
2018-03-08T15:50:41.442Z,38.17
2018-03-08T15:53:10.152Z,40.59
2018-03-08T15:55:41.814Z,40.67
2018-03-08T15:58:10.791Z,40.14
2018-03-08T16:00:39.495Z,41.33
2018-03-08T16:03:08.125Z,41.71
2018-03-08T16:11:11.562Z,43.69
2018-03-08T16:18:53.705Z,45.67
2018-03-08T16:21:22.360Z,45.48
2018-03-08T16:24:00.950Z,45.83
2018-03-08T16:26:32.961Z,43.95
2018-03-08T16:29:05.625Z,44.14
2018-03-08T16:31:34.601Z,43.66
2018-03-08T16:34:04.700Z,44.39
2018-03-08T16:36:33.304Z,44.67
2018-03-08T16:39:01.909Z,44.22
2018-03-08T16:41:30.817Z,45.28
2018-03-08T16:43:59.460Z,46.39
2018-03-08T16:46:29.278Z,44.73
2018-03-08T16:48:57.883Z,46.45
2018-03-08T16:51:26.550Z,46.65
2018-03-08T16:53:55.243Z,44.22
2018-03-08T16:56:24.614Z,45.66
2018-03-08T16:58:53.201Z,43.63
2018-03-08T17:01:21.912Z,43.26
2018-03-08T17:03:50.516Z,43.86
2018-03-08T17:06:19.283Z,43.31
2018-03-08T17:08:48.074Z,46.42
2018-03-08T17:11:16.712Z,44.37
2018-03-08T17:13:45.281Z,44.34
2018-03-08T17:16:13.940Z,43.69
2018-03-08T17:18:42.566Z,43.95
2018-03-08T17:21:11.384Z,43.63
2018-03-08T17:23:40.155Z,44.24
2018-03-08T17:26:08.946Z,44.70
2018-03-08T17:28:37.556Z,43.94
2018-03-08T17:31:06.253Z,43.79
2018-03-08T17:33:35.497Z,43.71
2018-03-08T17:36:04.107Z,44.20
2018-03-08T17:38:32.840Z,44.45
2018-03-08T17:41:01.562Z,45.31
2018-03-08T17:43:30.282Z,45.30
2018-03-08T17:45:58.904Z,45.63
2018-03-08T17:48:27.625Z,45.33
2018-03-08T17:50:56.347Z,45.96
2018-03-08T17:53:24.969Z,46.74
2018-03-08T17:55:53.611Z,46.39
2018-03-08T17:58:22.421Z,46.92
2018-03-08T18:00:51.042Z,46.65
2018-03-08T18:03:20.462Z,46.97
2018-03-08T18:05:49.181Z,47.40
2018-03-08T18:08:17.904Z,47.66
2018-03-08T18:10:46.522Z,47.40
2018-03-08T18:13:15.214Z,47.70
2018-03-08T18:15:43.968Z,47.70
2018-03-08T18:18:12.554Z,47.61
2018-03-08T18:20:41.311Z,47.36
2018-03-08T18:23:09.942Z,47.21
2018-03-08T18:25:38.598Z,47.32
2018-03-08T18:28:07.174Z,47.53
2018-03-08T18:30:35.798Z,47.35
2018-03-08T18:33:04.445Z,47.36
2018-03-08T18:35:33.144Z,47.32
2018-03-08T18:38:01.768Z,47.50
2018-03-08T18:40:30.483Z,48.02
2018-03-08T18:42:59.130Z,48.02
2018-03-08T18:45:27.737Z,47.98
2018-03-08T18:47:56.451Z,48.23
2018-03-08T18:50:25.036Z,48.23
2018-03-08T18:52:53.591Z,48.73
2018-03-08T18:55:22.213Z,48.70
2018-03-08T18:57:50.802Z,48.10
2018-03-08T19:00:19.432Z,48.06
2018-03-08T19:02:48.695Z,47.87
2018-03-08T19:05:17.433Z,47.90
2018-03-08T19:07:45.980Z,47.91
2018-03-08T19:10:15.047Z,50.67
2018-03-08T19:12:43.667Z,49.95
2018-03-08T19:15:12.380Z,52.16
2018-03-08T19:17:41.132Z,52.39
2018-03-08T19:20:09.722Z,52.26
2018-03-08T19:22:38.431Z,52.07
2018-03-08T19:25:07.280Z,54.31
2018-03-08T19:27:35.832Z,52.63
2018-03-08T19:30:04.625Z,52.73
2018-03-08T19:32:33.244Z,55.57
2018-03-08T19:35:02.067Z,55.06
2018-03-08T19:37:30.687Z,55.92
2018-03-08T19:39:59.414Z,57.78
2018-03-08T19:42:28.134Z,55.98
2018-03-08T19:44:56.852Z,56.03
2018-03-08T19:47:25.439Z,56.85
2018-03-08T19:49:54.056Z,58.03
2018-03-08T19:52:22.617Z,58.95
2018-03-08T19:54:51.275Z,59.27
2018-03-08T19:57:19.861Z,58.66
2018-03-08T19:59:48.481Z,60.08
2018-03-08T20:02:17.223Z,60.03
2018-03-08T20:04:45.925Z,60.50
2018-03-08T20:07:14.646Z,61.86
2018-03-08T20:09:43.284Z,58.48
2018-03-08T20:12:11.907Z,58.81
2018-03-08T20:14:40.465Z,59.46
2018-03-08T20:17:09.158Z,60.76
2018-03-08T20:19:37.854Z,60.00
2018-03-08T20:22:06.500Z,66.23
2018-03-08T20:24:35.148Z,70.33
2018-03-08T20:27:03.829Z,63.54
2018-03-08T20:29:36.270Z,65.74
2018-03-08T20:32:09.614Z,59.67
2018-03-08T20:34:38.315Z,60.12
2018-03-08T20:37:06.948Z,60.43
2018-03-08T20:39:35.665Z,60.65
2018-03-08T20:42:04.304Z,60.81
2018-03-08T20:44:33.101Z,61.09
2018-03-08T20:47:01.724Z,61.22
2018-03-08T20:49:31.153Z,61.25
2018-03-08T20:51:59.874Z,61.42
2018-03-08T20:54:29.395Z,61.46
2018-03-08T20:56:58.124Z,61.62
2018-03-08T20:59:26.839Z,62.00
2018-03-08T21:01:55.562Z,62.54
2018-03-08T21:04:24.281Z,62.58
2018-03-08T21:06:52.959Z,62.53
2018-03-08T21:09:21.627Z,62.69
2018-03-08T21:11:50.357Z,63.13
2018-03-08T21:14:19.069Z,63.38
2018-03-08T21:16:47.793Z,62.98
2018-03-08T21:19:17.035Z,63.04
2018-03-08T21:21:45.640Z,63.76
2018-03-08T21:24:14.364Z,63.20
2018-03-08T21:26:43.079Z,63.56
2018-03-08T21:29:11.801Z,63.75
2018-03-08T21:31:40.423Z,63.47
2018-03-08T21:34:09.145Z,63.54
2018-03-08T21:36:37.805Z,64.15
2018-03-08T21:39:06.590Z,64.35
2018-03-08T21:41:35.287Z,63.98
2018-03-08T21:44:04.147Z,64.04
2018-03-08T21:46:32.872Z,64.15
2018-03-08T21:49:01.601Z,64.81
2018-03-08T21:51:30.212Z,64.36
2018-03-08T21:53:58.923Z,64.32
2018-03-08T21:56:27.541Z,64.48
2018-03-08T21:58:56.384Z,64.30
2018-03-08T22:01:25.087Z,64.00
2018-03-08T22:03:53.710Z,64.08
2018-03-08T22:06:25.441Z,64.08
2018-03-08T22:08:54.064Z,63.69
2018-03-08T22:11:22.666Z,63.68
2018-03-08T22:13:51.305Z,63.94
2018-03-08T22:16:19.814Z,63.74
2018-03-08T22:18:48.550Z,64.16
2018-03-08T22:21:18.362Z,64.33
2018-03-08T22:23:46.997Z,64.52
2018-03-08T22:26:15.735Z,64.38
2018-03-08T22:28:44.427Z,64.54
2018-03-08T22:31:13.079Z,64.55
2018-03-08T22:33:41.690Z,64.24
2018-03-08T22:36:10.392Z,64.33
2018-03-08T22:38:39.119Z,64.31
2018-03-08T22:41:07.836Z,64.54
2018-03-08T22:43:36.464Z,64.62
2018-03-08T22:46:05.096Z,64.44
2018-03-08T22:48:33.787Z,64.11
2018-03-08T22:51:02.525Z,64.21
2018-03-08T22:53:32.349Z,64.01
2018-03-08T22:56:00.985Z,64.01
2018-03-08T22:58:29.577Z,64.07
2018-03-08T23:00:58.641Z,64.98
2018-03-08T23:03:30.250Z,64.82
2018-03-08T23:05:58.970Z,65.01
2018-03-08T23:08:27.594Z,65.01
2018-03-08T23:10:56.286Z,64.89
2018-03-08T23:13:25.036Z,64.53
2018-03-08T23:15:53.758Z,64.55
2018-03-08T23:18:22.479Z,64.71
2018-03-08T23:20:51.214Z,64.55
2018-03-08T23:23:20.025Z,64.42
2018-03-08T23:25:55.487Z,64.56
2018-03-08T23:28:24.191Z,64.38
2018-03-08T23:30:55.122Z,64.34
2018-03-08T23:33:23.752Z,64.75
2018-03-08T23:35:52.742Z,64.37
2018-03-08T23:38:21.347Z,64.41
2018-03-08T23:40:50.111Z,64.36
2018-03-08T23:43:18.831Z,64.31
2018-03-08T23:45:48.491Z,64.60
2018-03-08T23:48:17.075Z,64.48
2018-03-08T23:50:45.698Z,64.46
2018-03-08T23:53:14.420Z,64.69
2018-03-08T23:55:43.045Z,64.64
2018-03-08T23:58:11.702Z,64.82
